Latest Weather Observations for Point Avoid

IDS60801

Issued at 4:01 pm CST Friday 23 August 2019 (issued every 10 minutes, with the page automatically refreshed every 10 minutes)

About weather observations | Map of weather stations | Latest weather observations for SA | Other Formats
Station Details ID: 018230 Name: POINT AVOID Lat: -34.67 Lon: 135.34 Height: 35.0 m
Data from the previous 72 hours. | See also: Recent months at Point Avoid
Date/Time
CST
Temp
°C
App
Temp
°C
Dew
Point
°C
Rel
Hum
%
Delta-T
°C
Wind Press
QNH
hPa
Press
MSL
hPa
Rain since
9am
mm
Dir  Spd
km/h
Gust
km/h
Spd
kts
Gust
kts
23/04:00pm 18.2 15.3 13.9 76 2.5 NNW 22 32 12 17 1016.3 1016.3 0.0
23/03:30pm 18.1 14.9 14.2 78 2.2 NNW 24 30 13 16 1016.7 1016.7 0.0
23/03:00pm 18.5 15.3 14.2 76 2.5 NNW 24 32 13 17 1017.0 1017.0 0.0
23/02:30pm 18.9 15.1 13.5 71 3.1 NNW 26 37 14 20 1017.2 1017.2 0.0
23/02:00pm 18.6 14.8 13.7 73 2.8 NNW 26 35 14 19 1017.5 1017.5 0.0
23/01:30pm 18.1 14.4 14.0 77 2.3 NNW 26 37 14 20 1017.7 1017.7 0.0
23/01:00pm 17.9 14.6 14.0 78 2.2 NNW 24 35 13 19 1018.3 1018.3 0.0
23/12:30pm 17.6 13.9 13.9 79 2.1 NNW 26 33 14 18 1019.0 1019.0 0.0
23/12:00pm 17.4 14.1 14.1 81 1.9 N 24 35 13 19 1019.6 1019.6 0.0
23/11:30am 16.1 11.9 13.6 85 1.4 N 28 35 15 19 1020.0 1020.0 0.0
23/11:00am 15.2 11.0 13.6 90 0.9 N 28 37 15 20 1020.5 1020.5 0.0
23/10:30am 14.2 9.7 12.6 90 0.9 N 28 33 15 18 1020.8 1020.8 0.0
23/10:00am 14.0 10.6 12.4 90 0.9 N 22 30 12 16 1021.2 1021.2 0.0
23/09:30am 12.6 8.6 11.8 95 0.4 N 24 33 13 18 1021.6 1021.6 0.0
23/09:00am 11.9 8.3 11.7 99 0.1 N 22 33 12 18 1022.0 1022.0 0.0
23/08:30am 11.2 7.4 11.2 100 0.0 N 22 30 12 16 1022.3 1022.3 0.0
23/08:00am 10.4 6.8 10.4 100 0.0 NNE 20 30 11 16 1022.3 1022.3 0.0
23/07:30am 9.5 6.2 9.5 100 0.0 NNE 17 26 9 14 1022.3 1022.3 0.0
23/07:00am 9.2 5.2 9.2 100 0.0 NNE 20 28 11 15 1022.2 1022.2 0.0
23/06:30am 8.2 5.7 8.2 100 0.0 NNE 11 17 6 9 1022.1 1022.1 0.0
23/06:00am 8.0 5.1 8.0 100 0.0 NE 13 19 7 10 1022.3 1022.3 0.0
23/05:30am 8.0 4.3 8.0 100 0.0 NE 17 22 9 12 1022.3 1022.3 0.0
23/05:00am 7.8 4.1 7.8 100 0.0 NE 17 24 9 13 1022.4 1022.4 0.0
23/04:30am 8.2 4.6 8.2 100 0.0 NE 17 24 9 13 1022.6 1022.6 0.0
23/04:00am 8.2 4.6 8.2 100 0.0 NE 17 22 9 12 1022.8 1022.8 0.0
23/03:30am 8.2 4.9 8.2 100 0.0 NE 15 20 8 11 1023.2 1023.2 0.0
23/03:00am 8.0 4.7 8.0 100 0.0 NE 15 20 8 11 1023.6 1023.6 0.0
23/02:30am 7.8 4.1 7.8 100 0.0 NE 17 20 9 11 1023.8 1023.8 0.0
23/02:00am 7.2 4.1 7.2 100 0.0 ENE 13 15 7 8 1024.3 1024.3 0.0
23/01:30am 7.6 5.0 7.6 100 0.0 NE 11 15 6 8 1024.7 1024.7 0.0
23/01:00am 7.7 4.7 7.7 100 0.0 NE 13 15 7 8 1025.3 1025.3 0.0
23/12:30am 7.9 4.9 7.9 100 0.0 ENE 13 17 7 9 1025.6 1025.6 0.0
23/12:00am 8.3 5.4 8.3 100 0.0 ENE 13 19 7 10 1025.9 1025.9 0.0
 
Date/Time
CST
Temp
°C
App
Temp
°C
Dew
Point
°C
Rel
Hum
%
Delta-T
°C
Wind Press
QNH
hPa
Press
MSL
hPa
Rain since
9am
mm
Dir  Spd
km/h
Gust
km/h
Spd
kts
Gust
kts
22/11:30pm 8.0 5.1 8.0 100 0.0 ENE 13 15 7 8 1026.4 1026.4 0.0
22/11:00pm 8.5 5.7 8.5 100 0.0 ENE 13 15 7 8 1026.6 1026.6 0.0
22/10:30pm 9.0 6.7 8.9 99 0.0 ENE 11 13 6 7 1026.8 1026.8 0.0
22/10:00pm 9.8 7.3 9.8 100 0.0 ENE 13 15 7 8 1027.0 1027.0 0.0
22/09:30pm 10.5 8.9 10.3 99 0.1 ENE 9 11 5 6 1027.1 1027.1 0.0
22/09:00pm 11.4 10.3 10.6 95 0.4 E 7 7 4 4 1027.1 1027.1 0.0
22/08:30pm 12.2 11.6 11.6 96 0.3 E 6 9 3 5 1027.2 1027.2 0.0
22/08:00pm 12.5 11.7 11.7 95 0.4 ESE 7 9 4 5 1027.2 1027.2 0.0
22/07:30pm 12.7 12.0 11.9 95 0.4 SE 7 9 4 5 1027.3 1027.3 0.0
22/07:00pm 12.8 12.3 11.9 94 0.5 SE 6 7 3 4 1027.3 1027.3 0.0
22/06:30pm 12.8 12.1 11.9 94 0.5 SSE 7 9 4 5 1027.4 1027.4 0.0
22/06:00pm 13.1 12.5 12.2 94 0.5 SSE 7 9 4 5 1027.4 1027.4 0.0
22/05:30pm 13.3 12.3 12.2 93 0.6 SE 9 11 5 6 1027.4 1027.4 0.0
22/05:00pm 13.7 12.7 12.3 91 0.8 SE 9 11 5 6 1027.6 1027.6 0.0
22/04:30pm 14.1 13.4 11.3 83 1.5 WSW 6 9 3 5 1027.6 1027.6 0.0
22/04:00pm 14.0 13.1 10.8 81 1.7 WSW 6 7 3 4 1027.7 1027.7 0.0
22/03:30pm 14.1 13.6 10.7 80 1.8 WSW 4 6 2 3 1027.8 1027.8 0.0
22/03:00pm 14.6 13.3 11.4 81 1.7 W 9 13 5 7 1027.9 1027.9 0.0
22/02:30pm 14.5 13.7 11.8 84 1.4 WNW 7 9 4 5 1028.0 1028.0 0.0
22/02:00pm 14.3 13.7 11.6 84 1.4 WNW 6 9 3 5 1028.1 1028.1 0.0
22/01:30pm 14.1 13.5 11.8 86 1.2 WNW 6 11 3 6 1028.5 1028.5 0.0
22/01:00pm 14.3 13.8 12.5 89 1.0 WNW 7 9 4 5 1029.0 1029.0 0.0
22/12:30pm 14.1 13.2 12.7 91 0.8 WNW 9 13 5 7 1029.4 1029.4 0.0
22/12:00pm 14.3 13.9 12.9 91 0.8 WNW 7 9 4 5 1029.7 1029.7 0.0
22/11:30am 14.0 14.1 12.7 92 0.7 NNW 4 6 2 3 1030.0 1030.0 0.0
22/11:00am 13.7 13.3 12.4 92 0.7 NW 6 7 3 4 1030.2 1030.2 0.0
22/10:30am 13.4 13.0 12.3 93 0.6 WSW 6 7 3 4 1030.3 1030.4 0.0
22/10:00am 13.4 13.8 12.5 94 0.5 WSW 2 6 1 3 1030.5 1030.6 0.0
22/09:30am 13.2 13.2 12.3 94 0.5 WSW 4 6 2 3 1030.4 1030.5 0.0
22/09:00am 12.8 12.6 11.7 93 0.6 WSW 4 7 2 4 1030.3 1030.4 0.0
22/08:30am 13.0 12.7 11.6 91 0.7 S 4 7 2 4 1030.0 1030.0 0.0
22/08:00am 12.8 12.7 10.9 88 1.0 S 2 6 1 3 1029.6 1029.6 0.0
22/07:30am 12.6 11.1 10.5 87 1.1 S 9 17 5 9 1029.3 1029.3 0.0
22/07:00am 12.4 11.6 11.1 92 0.7 S 6 9 3 5 1029.1 1029.1 0.0
22/06:30am 12.5 11.2 11.4 93 0.6 S 9 13 5 7 1028.9 1028.9 0.0
22/06:00am 12.6 10.8 10.8 89 0.9 SSW 11 17 6 9 1028.9 1028.9 0.0
22/05:30am 12.6 10.8 11.0 90 0.8 SSW 11 13 6 7 1028.7 1028.7 0.0
22/05:00am 12.5 10.6 10.6 88 1.0 SW 11 17 6 9 1028.7 1028.7 0.0
22/04:30am 12.7 9.3 10.4 86 1.2 SW 19 26 10 14 1028.7 1028.7 0.0
22/04:00am 12.6 10.8 11.0 90 0.8 SW 11 15 6 8 1028.7 1028.7 0.0
22/03:30am 12.7 9.6 10.4 86 1.2 SW 17 24 9 13 1028.8 1028.8 0.0
22/03:00am 12.7 9.4 10.8 88 1.0 SSW 19 26 10 14 1029.0 1029.0 0.0
22/02:30am 12.6 9.2 10.5 87 1.1 SSW 19 26 10 14 1029.3 1029.3 0.0
22/02:00am 12.8 9.9 10.9 88 1.0 SW 17 26 9 14 1029.4 1029.4 0.0
22/01:30am 12.7 9.2 10.9 89 0.9 SW 20 32 11 17 1029.6 1029.6 0.0
22/01:00am 12.8 9.9 11.0 89 0.9 SW 17 26 9 14 1029.7 1029.7 0.0
22/12:30am 13.1 10.6 12.3 95 0.4 SW 17 22 9 12 1029.8 1029.8 0.0
22/12:00am 12.8 10.4 12.8 100 0.0 SSW 17 26 9 14 1029.8 1029.8 0.0
 
Date/Time
CST
Temp
°C
App
Temp
°C
Dew
Point
°C
Rel
Hum
%
Delta-T
°C
Wind Press
QNH
hPa
Press
MSL
hPa
Rain since
9am
mm
Dir  Spd
km/h
Gust
km/h
Spd
kts
Gust
kts
21/11:30pm 12.8 10.4 12.8 100 0.0 SW 17 22 9 12 1030.0 1030.0 0.0
21/11:00pm 13.3 11.5 13.3 100 0.0 WSW 15 20 8 11 1030.1 1030.1 0.0
21/10:30pm 13.2 11.4 13.2 100 0.0 WSW 15 19 8 10 1030.2 1030.2 0.0
21/10:00pm 13.2 11.0 13.2 100 0.0 WSW 17 20 9 11 1030.3 1030.4 0.0
21/09:30pm 13.1 10.8 13.1 100 0.0 WSW 17 24 9 13 1030.4 1030.5 0.0
21/09:00pm 13.1 10.8 13.1 100 0.0 SW 17 24 9 13 1030.3 1030.4 0.0
21/08:30pm 13.2 11.4 13.2 100 0.0 SW 15 20 8 11 1030.2 1030.2 0.0
21/08:00pm 13.2 11.0 13.2 100 0.0 SW 17 24 9 13 1030.2 1030.2 0.0
21/07:30pm 13.1 10.3 13.1 100 0.0 SW 20 28 11 15 1030.2 1030.2 0.0
21/07:00pm 13.3 10.2 13.3 100 0.0 WSW 22 28 12 15 1030.3 1030.4 0.0
21/06:30pm 13.2 10.6 13.2 100 0.0 WSW 19 24 10 13 1030.2 1030.2 0.0
21/06:00pm 13.1 10.3 13.1 100 0.0 WSW 20 26 11 14 1030.1 1030.1 0.0
21/05:30pm 13.3 10.5 13.3 100 0.0 WSW 20 28 11 15 1029.9 1029.9 0.0
21/05:00pm 13.5 11.0 13.5 100 0.0 W 19 28 10 15 1029.8 1029.8 0.0
21/04:30pm 13.4 10.9 13.4 100 0.0 W 19 28 10 15 1029.7 1029.7 0.0
21/04:00pm 13.9 11.9 13.9 100 0.0 WSW 17 22 9 12 1029.7 1029.7 0.0
21/03:30pm 13.8 11.2 13.8 100 0.0 WSW 20 28 11 15 1029.8 1029.8 0.0
21/03:00pm 13.8 11.4 13.8 100 0.0 W 19 24 10 13 1030.0 1030.0 0.0
21/02:30pm 14.0 11.1 14.0 100 0.0 W 22 28 12 15 1030.1 1030.1 0.0
21/02:00pm 14.0 11.7 14.0 100 0.0 W 19 24 10 13 1030.1 1030.1 0.0
21/01:30pm 14.3 12.4 14.3 100 0.0 W 17 22 9 12 1030.4 1030.5 0.0
21/01:00pm 14.8 13.1 14.8 100 0.0 WSW 17 24 9 13 1030.5 1030.6 0.0
21/12:30pm 14.6 12.5 14.6 100 0.0 WSW 19 26 10 14 1030.8 1030.9 0.0
21/12:00pm 14.4 12.0 14.4 100 0.0 WSW 20 26 11 14 1031.2 1031.3 0.0
21/11:30am 14.7 12.6 14.7 100 0.0 WSW 19 22 10 12 1031.3 1031.4 0.0
21/11:00am 14.6 12.5 14.6 100 0.0 WSW 19 26 10 14 1031.3 1031.4 0.0
21/10:30am 14.5 12.1 14.5 100 0.0 WSW 20 28 11 15 1031.4 1031.5 0.0
21/10:00am 14.1 11.6 14.1 100 0.0 WSW 20 28 11 15 1031.4 1031.5 0.0
21/09:30am 13.9 11.0 13.9 100 0.0 WSW 22 28 12 15 1031.1 1031.2 0.0
21/09:00am 13.8 11.2 13.8 100 0.0 WSW 20 26 11 14 1031.0 1031.1 0.0
21/08:30am 13.7 11.3 13.7 100 0.0 WSW 19 28 10 15 1030.9 1031.0 0.0
21/08:00am 13.6 11.1 13.6 100 0.0 WSW 19 24 10 13 1030.5 1030.6 0.0
21/07:30am 13.5 10.8 13.5 100 0.0 WSW 20 30 11 16 1030.2 1030.2 0.0
21/07:00am 13.3 10.5 13.3 100 0.0 WSW 20 30 11 16 1030.0 1030.0 0.0
21/06:30am 13.2 10.4 13.2 100 0.0 WSW 20 30 11 16 1029.9 1029.9 0.0
21/06:00am 13.0 10.3 13.0 100 0.0 WSW 19 24 10 13 1029.8 1029.8 0.0
21/05:30am 12.7 9.4 12.7 100 0.0 WSW 22 28 12 15 1029.7 1029.7 0.0
21/05:00am 12.7 9.4 12.7 100 0.0 W 22 32 12 17 1029.6 1029.6 0.0
21/04:30am 12.7 9.4 12.7 100 0.0 W 22 30 12 16 1029.6 1029.6 0.0
21/04:00am 12.7 9.4 12.7 100 0.0 W 22 28 12 15 1029.6 1029.6 0.0
21/03:30am 12.8 9.5 12.8 100 0.0 W 22 28 12 15 1030.0 1030.0 0.0
21/03:00am 12.6 9.2 12.6 100 0.0 W 22 30 12 16 1030.1 1030.1 0.0
21/02:30am 12.6 9.2 12.6 100 0.0 W 22 30 12 16 1030.3 1030.4 0.0
21/02:00am 12.6 9.2 12.6 100 0.0 W 22 30 12 16 1030.5 1030.6 0.0
21/01:30am 12.7 9.4 12.7 100 0.0 W 22 28 12 15 1030.6 1030.7 0.0
21/01:00am 13.1 9.9 13.1 100 0.0 WSW 22 28 12 15 1030.7 1030.8 0.0
21/12:30am 12.8 10.1 12.8 100 0.0 WSW 19 24 10 13 1030.8 1030.9 0.0
21/12:00am 13.3 10.4 13.0 98 0.2 WSW 20 26 11 14 1031.0 1031.1 0.0
 
Date/Time
CST
Temp
°C
App
Temp
°C
Dew
Point
°C
Rel
Hum
%
Delta-T
°C
Wind Press
QNH
hPa
Press
MSL
hPa
Rain since
9am
mm
Dir  Spd
km/h
Gust
km/h
Spd
kts
Gust
kts
20/11:30pm 13.1 9.5 13.1 100 0.0 WSW 24 30 13 16 1031.2 1031.3 0.0
20/11:00pm 12.8 9.5 12.8 100 0.0 WSW 22 32 12 17 1031.4 1031.5 0.0
20/10:30pm 13.0 9.0 13.0 100 0.0 WSW 26 35 14 19 1031.5 1031.6 0.0
20/10:00pm 13.4 8.8 13.4 100 0.0 WSW 30 39 16 21 1031.6 1031.7 0.0
20/09:30pm 13.5 9.7 13.5 100 0.0 WSW 26 32 14 17 1031.7 1031.8 0.0
20/09:00pm 13.2 9.6 13.2 100 0.0 WSW 24 33 13 18 1031.7 1031.8 0.0
20/08:30pm 13.0 9.4 13.0 100 0.0 WSW 24 33 13 18 1031.6 1031.7 0.0
20/08:00pm 13.2 8.9 13.2 100 0.0 W 28 37 15 20 1031.5 1031.6 0.0
20/07:30pm 13.2 9.6 13.2 100 0.0 WSW 24 32 13 17 1031.5 1031.6 0.0
20/07:00pm 13.4 10.0 12.6 95 0.4 W 22 32 12 17 1031.5 1031.6 0.0
20/06:30pm 13.5 8.5 12.1 91 0.7 WSW 30 37 16 20 1031.5 1031.6 0.0
20/06:00pm 13.5 8.4 11.9 90 0.9 WSW 30 41 16 22 1031.3 1031.4 0.0
20/05:30pm 13.6 9.4 12.5 93 0.6 W 26 35 14 19 1031.3 1031.4 0.0
20/05:00pm 13.7 9.7 12.9 95 0.4 W 26 35 14 19 1031.3 1031.4 0.0
20/04:30pm 13.8 9.5 13.3 97 0.3 W 28 37 15 20 1031.3 1031.4 0.0

Other formats

Comma delimited format used in spreadsheet applications
http://www.bom.gov.au/fwo/IDS60801/IDS60801.95649.axf

JavaScript Object Notation format (JSON) in row-major order
http://www.bom.gov.au/fwo/IDS60801/IDS60801.95649.json

Data quality

Most of these data are generated automatically and are frequently updated. Quality checks on data are not normally performed. It is possible for incorrect values to appear. Refer to information at About Latest Weather Observations and please check the disclaimer before using these data.